Monday, December 18, 2017, 12:44 PM GMT
Back to Local

CYUL, Montreal / Pierre Elliot Trudeau International Airport, Que

Location: , , Canada Lat: 45.467
Local Time: 12:44 PM GMT (12:44 GMT) Lon: -73.75
Time Zone: GMT Elev: 101 ft

Show me the last for .
Show Coded

Time T Td Feel RH Dir Speed Gust Alt SLP Vis Weather Sky Remarks
2017-12-18 12:00 9 3 -6 78 20° 12 - 30.09 30.10 12 FEW012 OVC080 Pressure falling rapidly
2017-12-18 11:00 9 3 -6 78 40° 10 - 30.11 30.13 15 SCT100 OVC120 None
2017-12-18 10:00 9 3 -6 78 40° 12 - 30.13 30.14 12 BKN130 OVC210 None
2017-12-18 09:00 7 1 -7 77 50° 9 - 30.16 30.17 10 FEW012 FEW130 BKN170 OVC210 None
2017-12-18 08:31 9 1 -5 71 80° 9 - 30.17 30.18 15 BKN013 BKN140 None
2017-12-18 08:00 9 3 -5 78 80° 9 - 30.18 30.20 8 FEW015 OVC120 Pressure falling rapidly
2017-12-18 07:00 9 5 -4 84 30° 8 - 30.21 30.22 5 BR FEW013 OVC110 None
2017-12-18 06:00 9 5 -1 84 50° 6 - 30.21 30.22 5 BR FEW004 OVC130 None
2017-12-18 05:34 7 3 0 84 50° 3 - 30.22 30.23 4 BR FEW004 OVC140 None
2017-12-18 05:21 7 3 -2 84 80° 5 - 30.22 30.23 4 -SN BR BKN004 OVC150 Pressure falling rapidly
2017-12-18 05:00 7 3 -3 84 90° 6 - 30.23 30.24 5 BR FEW005 OVC150 None
2017-12-18 04:09 7 3 -2 84 100° 5 - 30.25 30.27 5 BR FEW002 FEW006 OVC150 None
2017-12-18 04:00 7 3 -2 84 110° 5 - 30.26 30.27 5 -SN BR FEW002 BKN006 OVC180 None
2017-12-18 03:00 5 1 -4 84 110° 5 - 30.27 30.29 7 VCSH FEW005 FEW180 None
2017-12-18 02:32 7 3 -2 84 90° 5 - 30.28 30.29 7 -SN FEW008 SCT170 BKN240 None
2017-12-18 02:23 7 3 -2 84 90° 5 - 30.28 30.29 4 -SN BR FEW003 BKN007 BKN220 None
2017-12-18 02:09 7 3 -3 84 100° 6 - 30.28 30.29 1 -SN BR FEW002 BKN007 OVC220 Pressure falling rapidly
2017-12-18 02:00 7 3 - 84 Variable 2 - 30.29 30.30 2 -SN BR FEW003 BKN008 OVC240 None
2017-12-18 01:50 7 3 -3 84 110° 6 - 30.29 30.30 2 -SN BR FEW003 BKN006 OVC240 None
2017-12-18 01:33 7 3 -2 84 110° 5 - 30.30 30.31 5 -SN BR FEW003 BKN006 OVC240 None
2017-12-18 01:28 7 3 -3 84 120° 6 - 30.30 30.31 2 -SN BR FEW003 BKN007 OVC240 None
2017-12-18 01:21 7 3 -6 84 120° 8 - 30.30 30.31 3 -SN BR FEW003 OVC006 None
2017-12-18 01:12 7 3 -5 84 120° 7 - 30.29 30.31 5 -SN BR SCT004 OVC007 None
2017-12-18 01:08 9 5 -3 84 120° 7 - 30.29 30.30 2 -SN BR FEW002 OVC006 None
2017-12-18 01:00 9 5 -3 84 150° 7 - 30.30 30.31 6 -SN FEW004 BKN006 OVC012 None
2017-12-18 00:53 7 3 0 84 140° 3 - 30.30 30.31 3 -SN FEW004 BKN009 None
2017-12-18 00:43 7 3 -2 84 120° 5 - 30.30 30.31 8 -SN FEW004 BKN006 BKN240 None
2017-12-18 00:31 5 1 -6 84 100° 6 - 30.30 30.32 7 -SN FEW004 SCT007 BKN240 None
2017-12-18 00:00 7 1 - 77 Variable 2 - 30.31 30.32 7 -SN FEW004 SCT011 BKN240 None
2017-12-17 23:53 7 1 - 77 - Calm - 30.31 30.33 15 FEW008 SCT012 BKN240 None
2017-12-17 23:00 7 0 0 71 260° 3 - 30.31 30.33 15 FEW025 FEW240 None
2017-12-17 22:00 7 0 -2 71 240° 5 - 30.33 30.34 15 FEW017 FEW030 SCT240 None
2017-12-17 21:00 7 0 -2 71 260° 5 - 30.34 30.35 15 FEW014 FEW025 BKN240 None
2017-12-17 20:00 9 1 2 71 240° 3 - 30.32 30.33 15 FEW014 FEW030 SCT240 None
2017-12-17 19:00 9 3 -1 78 190° 6 - 30.33 30.34 15 FEW008 FEW013 FEW025 SCT240 None
2017-12-17 18:23 9 3 2 78 170° 3 - 30.34 30.35 15 FEW008 FEW013 FEW025 SCT240 None
2017-12-17 18:00 9 1 -1 71 160° 6 - 30.34 30.35 10 -SN FEW008 SCT012 BKN240 None
2017-12-17 17:42 7 1 - 77 - Calm - 30.34 30.36 8 -SN FEW006 BKN012 BKN022 None
2017-12-17 17:22 7 1 - 77 - Calm - 30.35 30.37 3 -SN FEW005 BKN010 BKN025 None
2017-12-17 17:00 7 1 - 77 - Calm - 30.36 30.37 6 -SN FEW004 BKN009 BKN024 None
2017-12-17 16:53 7 1 - 77 - Calm - 30.36 30.37 10 -SN FEW004 BKN009 BKN025 None
2017-12-17 16:21 5 1 -2 84 250° 3 - 30.37 30.38 12 -SN FEW008 FEW012 SCT240 None
2017-12-17 16:11 5 1 -2 84 240° 3 - 30.37 30.38 12 -SN FEW007 SCT013 BKN240 None
2017-12-17 16:00 5 1 -4 84 280° 5 - 30.37 30.38 10 -SN FEW004 BKN007 BKN025 None
2017-12-17 15:52 3 0 -6 84 270° 5 - 30.37 30.39 12 -SN SCT007 BKN025 None
2017-12-17 15:35 3 0 -6 84 260° 5 - 30.38 30.39 12 -SN BKN007 None
2017-12-17 15:22 3 0 -4 84 250° 3 - 30.37 30.39 7 -SN FEW004 BKN008 None
2017-12-17 15:14 3 -2 -4 77 280° 3 - 30.37 30.38 6 -SN FEW003 BKN007 None
2017-12-17 15:00 1 -2 -6 84 250° 3 - 30.38 30.39 6 -SN BKN007 None
2017-12-17 14:41 1 -4 -6 77 280° 3 - 30.37 30.39 15 -SN BKN006 None
2017-12-17 14:00 0 -4 -8 84 280° 3 - 30.35 30.36 15 -SN FEW005 SCT018 None
2017-12-17 13:50 0 -6 -8 77 290° 3 - 30.35 30.36 15 -SN FEW015 SCT025 None
2017-12-17 13:11 -2 -8 -12 77 230° 5 - 30.34 30.35 15 BKN023 BKN240 None
2017-12-17 13:00 -4 -8 - 83 230° 2 - 30.34 30.35 15 SCT015 SCT240 None

Support USWX by starting your Amazon purchase here.